sensor_id;sensor_type;location;lat;lon;timestamp;P1;durP1;ratioP1;P2;durP2;ratioP2
75320;SDS011;68337;52.196;5.660;2024-03-25T00:02:09;21.13;;;3.60;;
75320;SDS011;68337;52.196;5.660;2024-03-25T00:04:35;16.45;;;3.47;;
75320;SDS011;68337;52.196;5.660;2024-03-25T00:07:01;14.18;;;3.65;;
75320;SDS011;68337;52.196;5.660;2024-03-25T00:09:27;20.75;;;3.90;;
75320;SDS011;68337;52.196;5.660;2024-03-25T00:11:53;17.52;;;3.35;;
75320;SDS011;68337;52.196;5.660;2024-03-25T00:14:20;16.90;;;3.85;;
75320;SDS011;68337;52.196;5.660;2024-03-25T00:16:46;15.95;;;4.28;;
75320;SDS011;68337;52.196;5.660;2024-03-25T00:19:12;16.02;;;3.38;;
75320;SDS011;68337;52.196;5.660;2024-03-25T00:21:38;15.68;;;3.72;;
75320;SDS011;68337;52.196;5.660;2024-03-25T00:24:03;21.38;;;3.28;;
75320;SDS011;68337;52.196;5.660;2024-03-25T00:26:29;14.88;;;4.47;;
75320;SDS011;68337;52.196;5.660;2024-03-25T00:28:55;13.00;;;3.35;;
75320;SDS011;68337;52.196;5.660;2024-03-25T00:31:21;13.15;;;3.25;;
75320;SDS011;68337;52.196;5.660;2024-03-25T00:33:46;15.70;;;3.25;;
75320;SDS011;68337;52.196;5.660;2024-03-25T00:36:12;12.15;;;2.63;;
75320;SDS011;68337;52.196;5.660;2024-03-25T00:38:38;8.32;;;2.78;;
75320;SDS011;68337;52.196;5.660;2024-03-25T00:41:04;19.30;;;4.43;;
75320;SDS011;68337;52.196;5.660;2024-03-25T00:43:29;15.15;;;3.45;;
75320;SDS011;68337;52.196;5.660;2024-03-25T00:45:55;18.75;;;3.17;;
75320;SDS011;68337;52.196;5.660;2024-03-25T00:48:21;12.90;;;3.13;;
75320;SDS011;68337;52.196;5.660;2024-03-25T00:50:48;7.18;;;2.42;;
75320;SDS011;68337;52.196;5.660;2024-03-25T00:53:14;10.15;;;3.10;;
75320;SDS011;68337;52.196;5.660;2024-03-25T00:55:39;15.32;;;3.17;;
75320;SDS011;68337;52.196;5.660;2024-03-25T00:58:05;8.52;;;2.75;;
75320;SDS011;68337;52.196;5.660;2024-03-25T01:00:31;11.43;;;2.85;;
75320;SDS011;68337;52.196;5.660;2024-03-25T01:02:57;11.65;;;3.67;;
75320;SDS011;68337;52.196;5.660;2024-03-25T01:05:22;11.43;;;3.25;;
75320;SDS011;68337;52.196;5.660;2024-03-25T01:07:48;8.73;;;2.15;;
75320;SDS011;68337;52.196;5.660;2024-03-25T01:10:14;15.70;;;3.78;;
75320;SDS011;68337;52.196;5.660;2024-03-25T01:12:41;21.83;;;2.97;;
75320;SDS011;68337;52.196;5.660;2024-03-25T01:15:07;9.57;;;3.08;;
75320;SDS011;68337;52.196;5.660;2024-03-25T01:17:35;7.28;;;2.10;;
75320;SDS011;68337;52.196;5.660;2024-03-25T01:20:01;10.77;;;3.17;;
75320;SDS011;68337;52.196;5.660;2024-03-25T01:22:28;10.85;;;2.90;;
75320;SDS011;68337;52.196;5.660;2024-03-25T01:24:54;11.52;;;2.83;;
75320;SDS011;68337;52.196;5.660;2024-03-25T01:27:19;12.18;;;3.22;;
75320;SDS011;68337;52.196;5.660;2024-03-25T01:29:48;5.85;;;2.88;;
75320;SDS011;68337;52.196;5.660;2024-03-25T01:32:13;13.43;;;2.63;;
75320;SDS011;68337;52.196;5.660;2024-03-25T01:34:39;8.18;;;2.78;;
75320;SDS011;68337;52.196;5.660;2024-03-25T01:37:05;10.02;;;2.47;;
75320;SDS011;68337;52.196;5.660;2024-03-25T01:39:31;13.00;;;3.22;;
75320;SDS011;68337;52.196;5.660;2024-03-25T01:41:56;16.40;;;3.67;;
75320;SDS011;68337;52.196;5.660;2024-03-25T01:44:22;8.15;;;2.55;;
75320;SDS011;68337;52.196;5.660;2024-03-25T01:46:48;9.73;;;2.92;;
75320;SDS011;68337;52.196;5.660;2024-03-25T01:49:14;16.70;;;4.13;;
75320;SDS011;68337;52.196;5.660;2024-03-25T01:51:40;13.60;;;3.65;;
75320;SDS011;68337;52.196;5.660;2024-03-25T01:54:07;18.58;;;4.03;;
75320;SDS011;68337;52.196;5.660;2024-03-25T01:56:33;20.10;;;4.35;;
75320;SDS011;68337;52.196;5.660;2024-03-25T01:59:01;24.35;;;3.97;;
75320;SDS011;68337;52.196;5.660;2024-03-25T02:01:28;18.50;;;4.03;;
75320;SDS011;68337;52.196;5.660;2024-03-25T02:03:54;16.42;;;3.15;;
75320;SDS011;68337;52.196;5.660;2024-03-25T02:06:21;18.17;;;3.33;;
75320;SDS011;68337;52.196;5.660;2024-03-25T02:08:49;16.73;;;3.58;;
75320;SDS011;68337;52.196;5.660;2024-03-25T02:11:15;8.43;;;2.90;;
75320;SDS011;68337;52.196;5.660;2024-03-25T02:13:42;18.00;;;3.42;;
75320;SDS011;68337;52.196;5.660;2024-03-25T02:16:08;10.65;;;3.13;;
75320;SDS011;68337;52.196;5.660;2024-03-25T02:18:33;18.88;;;4.28;;
75320;SDS011;68337;52.196;5.660;2024-03-25T02:20:59;11.00;;;3.20;;
75320;SDS011;68337;52.196;5.660;2024-03-25T02:23:25;20.23;;;3.35;;
75320;SDS011;68337;52.196;5.660;2024-03-25T02:25:53;12.98;;;2.90;;
75320;SDS011;68337;52.196;5.660;2024-03-25T02:28:19;14.52;;;3.33;;
75320;SDS011;68337;52.196;5.660;2024-03-25T02:30:45;16.98;;;3.90;;
75320;SDS011;68337;52.196;5.660;2024-03-25T02:33:12;12.45;;;3.13;;
75320;SDS011;68337;52.196;5.660;2024-03-25T02:35:38;18.92;;;3.72;;
75320;SDS011;68337;52.196;5.660;2024-03-25T02:38:06;14.45;;;4.05;;
75320;SDS011;68337;52.196;5.660;2024-03-25T02:40:33;18.75;;;2.92;;
75320;SDS011;68337;52.196;5.660;2024-03-25T02:42:59;11.75;;;3.83;;
75320;SDS011;68337;52.196;5.660;2024-03-25T02:45:25;16.20;;;3.35;;
75320;SDS011;68337;52.196;5.660;2024-03-25T02:47:51;18.27;;;3.28;;
75320;SDS011;68337;52.196;5.660;2024-03-25T02:50:17;10.23;;;3.33;;
75320;SDS011;68337;52.196;5.660;2024-03-25T02:52:43;23.27;;;3.42;;
75320;SDS011;68337;52.196;5.660;2024-03-25T02:55:08;18.15;;;3.63;;
75320;SDS011;68337;52.196;5.660;2024-03-25T02:57:34;13.38;;;3.13;;
75320;SDS011;68337;52.196;5.660;2024-03-25T03:00:00;17.17;;;3.70;;
75320;SDS011;68337;52.196;5.660;2024-03-25T03:02:25;14.68;;;3.55;;
75320;SDS011;68337;52.196;5.660;2024-03-25T03:04:51;18.30;;;3.53;;
75320;SDS011;68337;52.196;5.660;2024-03-25T03:07:17;12.63;;;3.35;;
75320;SDS011;68337;52.196;5.660;2024-03-25T03:09:43;15.57;;;3.55;;
75320;SDS011;68337;52.196;5.660;2024-03-25T03:12:08;17.73;;;3.97;;
75320;SDS011;68337;52.196;5.660;2024-03-25T03:14:34;13.32;;;2.92;;
75320;SDS011;68337;52.196;5.660;2024-03-25T03:17:00;15.57;;;3.92;;
75320;SDS011;68337;52.196;5.660;2024-03-25T03:19:30;16.77;;;3.78;;
75320;SDS011;68337;52.196;5.660;2024-03-25T03:21:56;15.70;;;3.05;;
75320;SDS011;68337;52.196;5.660;2024-03-25T03:24:22;11.63;;;3.05;;
75320;SDS011;68337;52.196;5.660;2024-03-25T03:26:48;9.77;;;3.45;;
75320;SDS011;68337;52.196;5.660;2024-03-25T03:29:13;12.15;;;3.55;;
75320;SDS011;68337;52.196;5.660;2024-03-25T03:31:39;15.32;;;3.78;;
75320;SDS011;68337;52.196;5.660;2024-03-25T03:34:05;13.00;;;3.53;;
75320;SDS011;68337;52.196;5.660;2024-03-25T03:36:31;11.38;;;3.10;;
75320;SDS011;68337;52.196;5.660;2024-03-25T03:38:57;15.00;;;3.40;;
75320;SDS011;68337;52.196;5.660;2024-03-25T03:41:22;21.02;;;3.95;;
75320;SDS011;68337;52.196;5.660;2024-03-25T03:43:48;14.05;;;3.50;;
75320;SDS011;68337;52.196;5.660;2024-03-25T03:46:14;22.75;;;3.92;;
75320;SDS011;68337;52.196;5.660;2024-03-25T03:48:39;17.58;;;4.35;;
75320;SDS011;68337;52.196;5.660;2024-03-25T03:51:05;12.77;;;3.55;;
75320;SDS011;68337;52.196;5.660;2024-03-25T03:53:31;15.48;;;3.05;;
75320;SDS011;68337;52.196;5.660;2024-03-25T03:55:59;16.33;;;3.03;;
75320;SDS011;68337;52.196;5.660;2024-03-25T03:58:27;12.45;;;3.00;;
75320;SDS011;68337;52.196;5.660;2024-03-25T04:00:53;11.00;;;2.85;;
75320;SDS011;68337;52.196;5.660;2024-03-25T04:03:19;13.35;;;2.95;;
75320;SDS011;68337;52.196;5.660;2024-03-25T04:05:45;8.90;;;2.85;;
75320;SDS011;68337;52.196;5.660;2024-03-25T04:08:11;7.60;;;3.53;;
75320;SDS011;68337;52.196;5.660;2024-03-25T04:10:37;10.05;;;2.92;;
75320;SDS011;68337;52.196;5.660;2024-03-25T04:13:04;9.57;;;2.53;;
75320;SDS011;68337;52.196;5.660;2024-03-25T04:15:32;10.00;;;3.20;;
75320;SDS011;68337;52.196;5.660;2024-03-25T04:17:58;5.55;;;2.38;;
75320;SDS011;68337;52.196;5.660;2024-03-25T04:20:24;12.57;;;3.20;;
75320;SDS011;68337;52.196;5.660;2024-03-25T04:22:51;9.82;;;2.60;;
75320;SDS011;68337;52.196;5.660;2024-03-25T04:25:16;9.13;;;2.70;;
75320;SDS011;68337;52.196;5.660;2024-03-25T04:27:43;11.40;;;2.88;;
75320;SDS011;68337;52.196;5.660;2024-03-25T04:30:09;9.00;;;2.72;;
75320;SDS011;68337;52.196;5.660;2024-03-25T04:32:36;6.88;;;2.70;;
75320;SDS011;68337;52.196;5.660;2024-03-25T04:35:03;9.57;;;2.42;;
75320;SDS011;68337;52.196;5.660;2024-03-25T04:37:29;4.38;;;2.47;;
75320;SDS011;68337;52.196;5.660;2024-03-25T04:39:55;6.45;;;2.22;;
75320;SDS011;68337;52.196;5.660;2024-03-25T04:42:21;5.93;;;2.35;;
75320;SDS011;68337;52.196;5.660;2024-03-25T04:44:48;8.73;;;2.80;;
75320;SDS011;68337;52.196;5.660;2024-03-25T04:47:13;12.68;;;3.33;;
75320;SDS011;68337;52.196;5.660;2024-03-25T04:49:40;7.88;;;2.33;;
75320;SDS011;68337;52.196;5.660;2024-03-25T04:52:06;10.45;;;3.80;;
75320;SDS011;68337;52.196;5.660;2024-03-25T04:54:32;11.20;;;3.90;;
75320;SDS011;68337;52.196;5.660;2024-03-25T04:56:58;11.02;;;3.47;;
75320;SDS011;68337;52.196;5.660;2024-03-25T04:59:23;12.27;;;3.85;;
75320;SDS011;68337;52.196;5.660;2024-03-25T05:01:49;8.13;;;3.15;;
75320;SDS011;68337;52.196;5.660;2024-03-25T05:04:15;9.40;;;4.63;;
75320;SDS011;68337;52.196;5.660;2024-03-25T05:06:40;12.20;;;4.93;;
75320;SDS011;68337;52.196;5.660;2024-03-25T05:09:06;6.68;;;3.25;;
75320;SDS011;68337;52.196;5.660;2024-03-25T05:11:32;5.97;;;3.03;;
75320;SDS011;68337;52.196;5.660;2024-03-25T05:13:58;8.07;;;3.30;;
75320;SDS011;68337;52.196;5.660;2024-03-25T05:16:24;7.80;;;2.88;;
75320;SDS011;68337;52.196;5.660;2024-03-25T05:18:50;5.60;;;2.28;;
75320;SDS011;68337;52.196;5.660;2024-03-25T05:21:16;5.97;;;2.42;;
75320;SDS011;68337;52.196;5.660;2024-03-25T05:23:42;4.95;;;2.50;;
75320;SDS011;68337;52.196;5.660;2024-03-25T05:26:07;4.30;;;2.35;;
75320;SDS011;68337;52.196;5.660;2024-03-25T05:28:33;3.22;;;2.00;;
75320;SDS011;68337;52.196;5.660;2024-03-25T05:31:06;2.72;;;2.30;;
75320;SDS011;68337;52.196;5.660;2024-03-25T05:33:35;5.80;;;2.15;;
75320;SDS011;68337;52.196;5.660;2024-03-25T05:36:01;3.15;;;1.60;;
75320;SDS011;68337;52.196;5.660;2024-03-25T05:38:27;4.40;;;2.28;;
75320;SDS011;68337;52.196;5.660;2024-03-25T05:40:53;4.78;;;2.20;;
75320;SDS011;68337;52.196;5.660;2024-03-25T05:43:20;6.90;;;2.42;;
75320;SDS011;68337;52.196;5.660;2024-03-25T05:45:52;5.55;;;2.45;;
75320;SDS011;68337;52.196;5.660;2024-03-25T05:48:19;4.05;;;2.70;;
75320;SDS011;68337;52.196;5.660;2024-03-25T05:50:45;6.25;;;2.72;;
75320;SDS011;68337;52.196;5.660;2024-03-25T05:53:11;6.55;;;2.92;;
75320;SDS011;68337;52.196;5.660;2024-03-25T05:55:37;7.50;;;2.60;;
75320;SDS011;68337;52.196;5.660;2024-03-25T05:58:03;11.27;;;3.63;;
75320;SDS011;68337;52.196;5.660;2024-03-25T06:00:29;7.38;;;2.47;;
75320;SDS011;68337;52.196;5.660;2024-03-25T06:02:56;8.13;;;3.20;;
75320;SDS011;68337;52.196;5.660;2024-03-25T06:05:22;7.40;;;3.47;;
75320;SDS011;68337;52.196;5.660;2024-03-25T06:07:47;13.43;;;3.90;;
75320;SDS011;68337;52.196;5.660;2024-03-25T06:10:13;12.77;;;4.65;;
75320;SDS011;68337;52.196;5.660;2024-03-25T06:12:39;15.40;;;5.13;;
75320;SDS011;68337;52.196;5.660;2024-03-25T06:15:05;16.05;;;4.63;;
75320;SDS011;68337;52.196;5.660;2024-03-25T06:17:31;10.60;;;3.65;;
75320;SDS011;68337;52.196;5.660;2024-03-25T06:19:57;14.13;;;4.68;;
75320;SDS011;68337;52.196;5.660;2024-03-25T06:22:22;15.35;;;4.82;;
75320;SDS011;68337;52.196;5.660;2024-03-25T06:24:48;16.60;;;4.68;;
75320;SDS011;68337;52.196;5.660;2024-03-25T06:27:15;17.95;;;5.68;;
75320;SDS011;68337;52.196;5.660;2024-03-25T06:29:41;22.85;;;6.38;;
75320;SDS011;68337;52.196;5.660;2024-03-25T06:32:08;17.92;;;5.53;;
75320;SDS011;68337;52.196;5.660;2024-03-25T06:34:52;24.08;;;6.32;;
75320;SDS011;68337;52.196;5.660;2024-03-25T06:37:19;25.60;;;7.63;;
75320;SDS011;68337;52.196;5.660;2024-03-25T06:39:45;23.83;;;7.88;;
75320;SDS011;68337;52.196;5.660;2024-03-25T06:42:11;31.25;;;7.95;;
75320;SDS011;68337;52.196;5.660;2024-03-25T06:44:36;32.85;;;9.40;;
75320;SDS011;68337;52.196;5.660;2024-03-25T06:47:02;30.67;;;7.53;;
75320;SDS011;68337;52.196;5.660;2024-03-25T06:49:28;34.85;;;7.88;;
75320;SDS011;68337;52.196;5.660;2024-03-25T06:51:54;24.02;;;8.18;;
75320;SDS011;68337;52.196;5.660;2024-03-25T06:54:19;21.40;;;7.65;;
75320;SDS011;68337;52.196;5.660;2024-03-25T06:56:45;25.35;;;7.90;;
75320;SDS011;68337;52.196;5.660;2024-03-25T06:59:11;33.53;;;9.48;;
75320;SDS011;68337;52.196;5.660;2024-03-25T07:01:36;29.70;;;9.15;;
75320;SDS011;68337;52.196;5.660;2024-03-25T07:04:02;27.00;;;9.75;;
75320;SDS011;68337;52.196;5.660;2024-03-25T07:06:28;33.83;;;9.82;;
75320;SDS011;68337;52.196;5.660;2024-03-25T07:08:54;38.47;;;9.70;;
75320;SDS011;68337;52.196;5.660;2024-03-25T07:11:20;29.77;;;10.82;;
75320;SDS011;68337;52.196;5.660;2024-03-25T07:13:45;33.63;;;8.73;;
75320;SDS011;68337;52.196;5.660;2024-03-25T07:16:12;31.75;;;8.27;;
75320;SDS011;68337;52.196;5.660;2024-03-25T07:18:37;21.50;;;7.53;;
75320;SDS011;68337;52.196;5.660;2024-03-25T07:21:03;20.02;;;8.05;;
75320;SDS011;68337;52.196;5.660;2024-03-25T07:23:29;17.33;;;8.15;;
75320;SDS011;68337;52.196;5.660;2024-03-25T07:25:55;21.02;;;8.32;;
75320;SDS011;68337;52.196;5.660;2024-03-25T07:28:21;27.75;;;8.55;;
75320;SDS011;68337;52.196;5.660;2024-03-25T07:30:49;19.65;;;7.55;;
75320;SDS011;68337;52.196;5.660;2024-03-25T07:33:15;31.73;;;7.97;;
75320;SDS011;68337;52.196;5.660;2024-03-25T07:35:40;27.33;;;8.05;;
75320;SDS011;68337;52.196;5.660;2024-03-25T07:38:06;22.55;;;7.70;;
75320;SDS011;68337;52.196;5.660;2024-03-25T07:40:32;36.13;;;7.88;;
75320;SDS011;68337;52.196;5.660;2024-03-25T07:42:58;27.52;;;7.15;;
75320;SDS011;68337;52.196;5.660;2024-03-25T07:45:24;24.02;;;7.60;;
75320;SDS011;68337;52.196;5.660;2024-03-25T07:47:49;24.73;;;8.18;;
75320;SDS011;68337;52.196;5.660;2024-03-25T07:50:15;19.77;;;7.18;;
75320;SDS011;68337;52.196;5.660;2024-03-25T07:52:41;26.17;;;8.75;;
75320;SDS011;68337;52.196;5.660;2024-03-25T07:55:07;24.67;;;8.23;;
75320;SDS011;68337;52.196;5.660;2024-03-25T07:57:33;20.73;;;6.72;;
75320;SDS011;68337;52.196;5.660;2024-03-25T07:59:59;24.98;;;7.15;;
75320;SDS011;68337;52.196;5.660;2024-03-25T08:02:25;23.95;;;7.40;;
75320;SDS011;68337;52.196;5.660;2024-03-25T08:04:50;19.75;;;5.95;;
75320;SDS011;68337;52.196;5.660;2024-03-25T08:07:16;19.63;;;6.28;;
75320;SDS011;68337;52.196;5.660;2024-03-25T08:09:42;19.48;;;6.18;;
75320;SDS011;68337;52.196;5.660;2024-03-25T08:12:07;17.50;;;6.97;;
75320;SDS011;68337;52.196;5.660;2024-03-25T08:14:33;20.95;;;6.20;;
75320;SDS011;68337;52.196;5.660;2024-03-25T08:16:59;18.73;;;6.65;;
75320;SDS011;68337;52.196;5.660;2024-03-25T08:19:25;20.95;;;5.63;;
75320;SDS011;68337;52.196;5.660;2024-03-25T08:21:50;24.73;;;5.22;;
75320;SDS011;68337;52.196;5.660;2024-03-25T08:24:16;17.92;;;5.45;;
75320;SDS011;68337;52.196;5.660;2024-03-25T08:26:42;18.73;;;5.88;;
75320;SDS011;68337;52.196;5.660;2024-03-25T08:29:07;14.90;;;4.60;;
75320;SDS011;68337;52.196;5.660;2024-03-25T08:31:33;18.02;;;5.07;;
75320;SDS011;68337;52.196;5.660;2024-03-25T08:33:59;11.85;;;4.13;;
75320;SDS011;68337;52.196;5.660;2024-03-25T08:36:24;9.80;;;4.72;;
75320;SDS011;68337;52.196;5.660;2024-03-25T08:38:50;21.52;;;4.68;;
75320;SDS011;68337;52.196;5.660;2024-03-25T08:41:16;14.13;;;3.20;;
75320;SDS011;68337;52.196;5.660;2024-03-25T08:43:41;14.23;;;3.10;;
75320;SDS011;68337;52.196;5.660;2024-03-25T08:46:07;17.20;;;3.38;;
75320;SDS011;68337;52.196;5.660;2024-03-25T08:48:33;12.40;;;3.40;;
75320;SDS011;68337;52.196;5.660;2024-03-25T08:50:58;13.70;;;3.63;;
75320;SDS011;68337;52.196;5.660;2024-03-25T08:53:24;15.25;;;3.28;;
75320;SDS011;68337;52.196;5.660;2024-03-25T08:55:50;14.23;;;3.20;;
75320;SDS011;68337;52.196;5.660;2024-03-25T08:58:15;13.07;;;2.85;;
75320;SDS011;68337;52.196;5.660;2024-03-25T09:00:42;17.30;;;2.83;;
75320;SDS011;68337;52.196;5.660;2024-03-25T09:03:08;12.80;;;3.25;;
75320;SDS011;68337;52.196;5.660;2024-03-25T09:05:35;9.00;;;2.50;;
75320;SDS011;68337;52.196;5.660;2024-03-25T09:08:04;10.82;;;3.03;;
75320;SDS011;68337;52.196;5.660;2024-03-25T09:10:31;10.80;;;2.67;;
75320;SDS011;68337;52.196;5.660;2024-03-25T09:13:15;16.90;;;2.90;;
75320;SDS011;68337;52.196;5.660;2024-03-25T09:15:41;9.90;;;3.15;;
75320;SDS011;68337;52.196;5.660;2024-03-25T09:18:07;14.57;;;3.58;;
75320;SDS011;68337;52.196;5.660;2024-03-25T09:20:32;12.85;;;2.95;;
75320;SDS011;68337;52.196;5.660;2024-03-25T09:22:58;8.85;;;2.20;;
75320;SDS011;68337;52.196;5.660;2024-03-25T09:25:24;9.93;;;2.72;;
75320;SDS011;68337;52.196;5.660;2024-03-25T09:27:50;10.48;;;3.38;;
75320;SDS011;68337;52.196;5.660;2024-03-25T09:30:16;10.20;;;2.80;;
75320;SDS011;68337;52.196;5.660;2024-03-25T09:32:44;9.80;;;2.58;;
75320;SDS011;68337;52.196;5.660;2024-03-25T09:35:11;5.85;;;2.53;;
75320;SDS011;68337;52.196;5.660;2024-03-25T09:37:37;9.63;;;2.53;;
75320;SDS011;68337;52.196;5.660;2024-03-25T09:40:03;9.07;;;2.53;;
75320;SDS011;68337;52.196;5.660;2024-03-25T09:42:33;11.20;;;2.90;;
75320;SDS011;68337;52.196;5.660;2024-03-25T09:45:01;9.57;;;2.47;;
75320;SDS011;68337;52.196;5.660;2024-03-25T09:47:28;10.70;;;2.63;;
75320;SDS011;68337;52.196;5.660;2024-03-25T09:49:54;9.52;;;2.92;;
75320;SDS011;68337;52.196;5.660;2024-03-25T09:52:20;7.18;;;2.60;;
75320;SDS011;68337;52.196;5.660;2024-03-25T09:54:46;7.43;;;2.08;;
75320;SDS011;68337;52.196;5.660;2024-03-25T09:57:12;9.73;;;2.65;;
75320;SDS011;68337;52.196;5.660;2024-03-25T09:59:39;9.90;;;2.50;;
75320;SDS011;68337;52.196;5.660;2024-03-25T10:02:05;10.07;;;2.38;;
75320;SDS011;68337;52.196;5.660;2024-03-25T10:04:34;8.05;;;2.28;;
75320;SDS011;68337;52.196;5.660;2024-03-25T10:07:08;6.72;;;2.20;;
75320;SDS011;68337;52.196;5.660;2024-03-25T10:09:33;10.55;;;2.60;;
75320;SDS011;68337;52.196;5.660;2024-03-25T10:11:59;10.68;;;2.40;;
75320;SDS011;68337;52.196;5.660;2024-03-25T10:14:25;7.90;;;2.30;;
75320;SDS011;68337;52.196;5.660;2024-03-25T10:16:50;6.95;;;2.28;;
75320;SDS011;68337;52.196;5.660;2024-03-25T10:19:16;12.00;;;2.67;;
75320;SDS011;68337;52.196;5.660;2024-03-25T10:21:42;10.68;;;2.70;;
75320;SDS011;68337;52.196;5.660;2024-03-25T10:24:07;9.63;;;2.22;;
75320;SDS011;68337;52.196;5.660;2024-03-25T10:26:33;8.80;;;2.97;;
75320;SDS011;68337;52.196;5.660;2024-03-25T10:29:02;8.48;;;1.90;;
75320;SDS011;68337;52.196;5.660;2024-03-25T10:31:29;7.22;;;2.13;;
75320;SDS011;68337;52.196;5.660;2024-03-25T10:33:55;7.63;;;2.05;;
75320;SDS011;68337;52.196;5.660;2024-03-25T10:36:21;9.63;;;2.83;;
75320;SDS011;68337;52.196;5.660;2024-03-25T10:38:49;7.20;;;2.35;;
75320;SDS011;68337;52.196;5.660;2024-03-25T10:41:27;5.32;;;2.13;;
75320;SDS011;68337;52.196;5.660;2024-03-25T10:43:54;6.82;;;2.13;;
75320;SDS011;68337;52.196;5.660;2024-03-25T10:46:23;5.80;;;2.30;;
75320;SDS011;68337;52.196;5.660;2024-03-25T10:48:58;7.68;;;2.22;;
75320;SDS011;68337;52.196;5.660;2024-03-25T10:51:32;9.52;;;2.75;;
75320;SDS011;68337;52.196;5.660;2024-03-25T10:54:00;8.10;;;2.20;;
75320;SDS011;68337;52.196;5.660;2024-03-25T10:56:30;6.57;;;2.35;;
75320;SDS011;68337;52.196;5.660;2024-03-25T10:58:56;12.23;;;2.85;;
75320;SDS011;68337;52.196;5.660;2024-03-25T11:01:22;7.85;;;2.75;;
75320;SDS011;68337;52.196;5.660;2024-03-25T11:03:48;9.90;;;2.38;;
75320;SDS011;68337;52.196;5.660;2024-03-25T11:06:14;6.63;;;2.47;;
75320;SDS011;68337;52.196;5.660;2024-03-25T11:08:42;10.77;;;2.90;;
75320;SDS011;68337;52.196;5.660;2024-03-25T11:11:12;7.82;;;3.03;;
75320;SDS011;68337;52.196;5.660;2024-03-25T11:13:38;6.32;;;2.47;;
75320;SDS011;68337;52.196;5.660;2024-03-25T11:16:05;10.85;;;2.83;;
75320;SDS011;68337;52.196;5.660;2024-03-25T11:18:34;10.85;;;2.88;;
75320;SDS011;68337;52.196;5.660;2024-03-25T11:21:06;5.63;;;2.63;;
75320;SDS011;68337;52.196;5.660;2024-03-25T11:23:47;6.78;;;2.17;;
75320;SDS011;68337;52.196;5.660;2024-03-25T11:26:24;8.98;;;2.08;;
75320;SDS011;68337;52.196;5.660;2024-03-25T11:28:50;6.95;;;2.22;;
75320;SDS011;68337;52.196;5.660;2024-03-25T11:31:19;10.07;;;2.72;;
75320;SDS011;68337;52.196;5.660;2024-03-25T11:33:47;8.98;;;2.50;;
75320;SDS011;68337;52.196;5.660;2024-03-25T11:36:13;7.95;;;3.05;;
75320;SDS011;68337;52.196;5.660;2024-03-25T11:38:40;7.68;;;2.83;;
75320;SDS011;68337;52.196;5.660;2024-03-25T11:41:08;10.13;;;3.00;;
75320;SDS011;68337;52.196;5.660;2024-03-25T11:43:36;10.80;;;2.72;;
75320;SDS011;68337;52.196;5.660;2024-03-25T11:46:02;8.25;;;2.55;;
75320;SDS011;68337;52.196;5.660;2024-03-25T11:48:29;14.52;;;2.95;;
75320;SDS011;68337;52.196;5.660;2024-03-25T11:50:55;9.27;;;2.50;;
75320;SDS011;68337;52.196;5.660;2024-03-25T11:53:20;6.68;;;2.63;;
75320;SDS011;68337;52.196;5.660;2024-03-25T11:55:49;6.50;;;2.28;;
75320;SDS011;68337;52.196;5.660;2024-03-25T11:58:17;6.07;;;1.98;;
75320;SDS011;68337;52.196;5.660;2024-03-25T12:00:48;14.35;;;2.72;;
75320;SDS011;68337;52.196;5.660;2024-03-25T12:03:14;6.93;;;2.50;;
75320;SDS011;68337;52.196;5.660;2024-03-25T12:05:44;11.05;;;2.83;;
75320;SDS011;68337;52.196;5.660;2024-03-25T12:08:10;5.43;;;2.55;;
75320;SDS011;68337;52.196;5.660;2024-03-25T12:10:37;7.50;;;2.83;;
75320;SDS011;68337;52.196;5.660;2024-03-25T12:13:22;10.57;;;2.70;;
75320;SDS011;68337;52.196;5.660;2024-03-25T12:15:50;3.10;;;1.67;;
75320;SDS011;68337;52.196;5.660;2024-03-25T12:18:16;6.70;;;1.88;;
75320;SDS011;68337;52.196;5.660;2024-03-25T12:20:42;5.32;;;1.88;;
75320;SDS011;68337;52.196;5.660;2024-03-25T12:23:10;3.13;;;1.63;;
75320;SDS011;68337;52.196;5.660;2024-03-25T12:25:36;9.15;;;2.05;;
75320;SDS011;68337;52.196;5.660;2024-03-25T12:28:07;5.25;;;2.13;;
75320;SDS011;68337;52.196;5.660;2024-03-25T12:30:40;5.05;;;2.28;;
75320;SDS011;68337;52.196;5.660;2024-03-25T12:33:14;8.27;;;2.42;;
75320;SDS011;68337;52.196;5.660;2024-03-25T12:35:41;5.22;;;2.03;;
75320;SDS011;68337;52.196;5.660;2024-03-25T12:38:07;9.20;;;2.83;;
75320;SDS011;68337;52.196;5.660;2024-03-25T12:40:33;11.68;;;2.65;;
75320;SDS011;68337;52.196;5.660;2024-03-25T12:42:58;9.25;;;2.22;;
75320;SDS011;68337;52.196;5.660;2024-03-25T12:45:27;5.75;;;2.25;;
75320;SDS011;68337;52.196;5.660;2024-03-25T12:47:53;6.40;;;2.20;;
75320;SDS011;68337;52.196;5.660;2024-03-25T12:50:19;9.80;;;3.38;;
75320;SDS011;68337;52.196;5.660;2024-03-25T12:52:48;4.88;;;2.22;;
75320;SDS011;68337;52.196;5.660;2024-03-25T12:55:14;8.00;;;2.35;;
75320;SDS011;68337;52.196;5.660;2024-03-25T12:57:40;8.93;;;2.80;;
75320;SDS011;68337;52.196;5.660;2024-03-25T13:00:07;7.43;;;2.28;;
75320;SDS011;68337;52.196;5.660;2024-03-25T13:02:33;8.02;;;2.40;;
75320;SDS011;68337;52.196;5.660;2024-03-25T13:04:59;7.28;;;2.53;;
75320;SDS011;68337;52.196;5.660;2024-03-25T13:07:24;6.75;;;2.85;;
75320;SDS011;68337;52.196;5.660;2024-03-25T13:09:51;6.55;;;2.58;;
75320;SDS011;68337;52.196;5.660;2024-03-25T13:12:17;6.95;;;1.95;;
75320;SDS011;68337;52.196;5.660;2024-03-25T13:14:43;6.70;;;2.75;;
75320;SDS011;68337;52.196;5.660;2024-03-25T13:17:09;7.43;;;2.95;;
75320;SDS011;68337;52.196;5.660;2024-03-25T13:19:35;6.03;;;1.95;;
75320;SDS011;68337;52.196;5.660;2024-03-25T13:22:00;5.57;;;2.33;;
75320;SDS011;68337;52.196;5.660;2024-03-25T13:24:26;5.82;;;2.42;;
75320;SDS011;68337;52.196;5.660;2024-03-25T13:26:52;8.00;;;2.75;;
75320;SDS011;68337;52.196;5.660;2024-03-25T13:29:18;9.10;;;2.88;;
75320;SDS011;68337;52.196;5.660;2024-03-25T13:31:44;4.75;;;2.28;;
75320;SDS011;68337;52.196;5.660;2024-03-25T13:34:10;6.03;;;2.60;;
75320;SDS011;68337;52.196;5.660;2024-03-25T13:36:37;10.55;;;2.30;;
75320;SDS011;68337;52.196;5.660;2024-03-25T13:39:02;8.23;;;2.97;;
75320;SDS011;68337;52.196;5.660;2024-03-25T13:41:28;7.57;;;2.53;;
75320;SDS011;68337;52.196;5.660;2024-03-25T13:43:54;6.40;;;2.78;;
75320;SDS011;68337;52.196;5.660;2024-03-25T13:46:20;5.63;;;2.65;;
75320;SDS011;68337;52.196;5.660;2024-03-25T13:48:47;4.28;;;2.15;;
75320;SDS011;68337;52.196;5.660;2024-03-25T13:51:13;6.38;;;2.45;;
75320;SDS011;68337;52.196;5.660;2024-03-25T13:53:38;5.38;;;2.13;;
75320;SDS011;68337;52.196;5.660;2024-03-25T13:56:05;6.30;;;2.35;;
75320;SDS011;68337;52.196;5.660;2024-03-25T13:58:31;4.15;;;2.15;;
75320;SDS011;68337;52.196;5.660;2024-03-25T14:00:57;4.22;;;2.28;;
75320;SDS011;68337;52.196;5.660;2024-03-25T14:03:22;4.57;;;2.00;;
75320;SDS011;68337;52.196;5.660;2024-03-25T14:05:48;5.53;;;2.28;;
75320;SDS011;68337;52.196;5.660;2024-03-25T14:08:14;5.28;;;2.17;;
75320;SDS011;68337;52.196;5.660;2024-03-25T14:10:39;5.43;;;2.30;;
75320;SDS011;68337;52.196;5.660;2024-03-25T14:13:07;6.20;;;2.28;;
75320;SDS011;68337;52.196;5.660;2024-03-25T14:15:33;4.20;;;2.20;;
75320;SDS011;68337;52.196;5.660;2024-03-25T14:17:59;6.03;;;2.85;;
75320;SDS011;68337;52.196;5.660;2024-03-25T14:20:25;4.38;;;2.20;;
75320;SDS011;68337;52.196;5.660;2024-03-25T14:22:50;5.57;;;2.50;;
75320;SDS011;68337;52.196;5.660;2024-03-25T14:25:16;3.50;;;2.22;;
75320;SDS011;68337;52.196;5.660;2024-03-25T14:27:42;6.88;;;2.65;;
75320;SDS011;68337;52.196;5.660;2024-03-25T14:30:07;5.32;;;2.47;;
75320;SDS011;68337;52.196;5.660;2024-03-25T14:32:36;6.07;;;2.47;;
75320;SDS011;68337;52.196;5.660;2024-03-25T14:35:03;6.78;;;2.55;;
75320;SDS011;68337;52.196;5.660;2024-03-25T14:37:31;5.90;;;2.08;;